Latest Weather Observations for Avalon

IDV60801

Issued at 9:52 pm EST Thursday 20 June 2019 (issued every 10 minutes, with the page automatically refreshed every 10 minutes)

About weather observations | Map of weather stations | Latest weather observations for VIC | Other Formats
Station Details ID: 087113 Name: AVALON AIRPORT Lat: -38.03 Lon: 144.48 Height: 10.6 m
Data from the previous 72 hours. | See also: Recent months at Avalon
Date/Time
EST
Temp
°C
App
Temp
°C
Dew
Point
°C
Rel
Hum
%
Delta-T
°C
Wind Press
QNH
hPa
Press
MSL
hPa
Rain since
9am
mm
Dir  Spd
km/h
Gust
km/h
Spd
kts
Gust
kts
20/09:30pm 6.2 2.5 6.1 99 0.0 WNW 15 20 8 11 1026.9 1026.9 4.8
20/09:00pm 5.9 2.5 5.8 99 0.0 WNW 13 13 7 7 1026.8 1026.8 4.6
20/08:30pm 5.9 2.5 5.8 99 0.0 WNW 13 15 7 8 1026.9 1026.9 4.6
20/08:00pm 6.5 3.2 6.4 99 0.0 WNW 13 15 7 8 1026.6 1026.6 4.6
20/07:30pm 7.1 3.9 7.0 99 0.0 WNW 13 15 7 8 1026.6 1026.6 4.6
20/07:00pm 7.5 4.8 7.4 99 0.0 W 11 13 6 7 1026.5 1026.5 4.6
20/06:30pm 7.8 4.0 7.7 99 0.0 W 17 22 9 12 1026.2 1026.2 4.2
20/06:00pm 7.6 5.3 7.3 98 0.1 WNW 9 11 5 6 1025.8 1025.8 3.6
20/05:33pm 7.9 6.9 7.3 96 0.3 WNW 2 11 1 6 1025.6 1025.6 3.4
20/05:30pm 7.9 7.3 7.3 96 0.3 CALM 0 0 0 0 1025.6 1025.6 3.4
20/05:12pm 8.2 5.9 7.3 94 0.4 SW 9 13 5 7 1025.6 1025.6 2.2
20/05:00pm 9.0 6.0 7.8 92 0.6 WSW 13 15 7 8 1025.7 1025.7 0.8
20/04:30pm 9.5 6.9 7.6 88 0.9 WNW 11 13 6 7 1025.0 1025.0 0.2
20/04:00pm 9.4 7.0 7.2 86 1.0 W 9 13 5 7 1025.0 1025.0 0.2
20/03:30pm 9.7 7.4 7.3 85 1.1 WSW 9 11 5 6 1025.0 1025.0 0.2
20/03:00pm 9.0 5.9 7.1 88 0.9 WSW 13 15 7 8 1025.0 1025.0 0.2
20/02:30pm 9.3 6.2 7.4 88 0.9 WSW 13 15 7 8 1025.1 1025.1 0.2
20/02:00pm 9.3 6.7 7.6 89 0.8 W 11 15 6 8 1025.0 1025.0 0.2
20/01:30pm 9.0 7.2 7.3 89 0.8 SW 6 9 3 5 1025.2 1025.2 0.2
20/01:00pm 9.4 6.3 7.3 87 1.0 SSE 13 17 7 9 1025.5 1025.5 0.0
20/12:30pm 9.7 8.6 7.0 83 1.3 S 2 9 1 5 1025.7 1025.7 0.0
20/12:00pm 9.3 8.6 6.9 85 1.1 CALM 0 6 0 3 1026.0 1026.0 0.0
20/11:30am 8.7 6.8 6.8 88 0.9 WNW 6 9 3 5 1026.4 1026.4 0.0
20/11:00am 8.2 5.0 6.8 91 0.6 WNW 13 17 7 9 1026.7 1026.7 0.0
20/10:30am 8.2 5.1 7.3 94 0.4 WNW 13 17 7 9 1026.8 1026.8 0.0
20/10:00am 7.5 3.2 7.2 98 0.1 WNW 19 20 10 11 1026.7 1026.7 0.0
20/09:30am 7.3 3.8 7.2 99 0.0 W 15 19 8 10 1026.7 1026.7 0.0
20/09:00am 6.7 3.1 6.6 99 0.0 WNW 15 17 8 9 1026.6 1026.6 0.8
20/08:30am 6.6 4.5 6.5 99 0.0 SW 7 9 4 5 1026.6 1026.6 0.8
20/08:00am 6.5 3.6 6.4 99 0.0 SW 11 13 6 7 1026.6 1026.6 0.8
20/07:30am 6.5 2.8 6.4 99 0.0 W 15 20 8 11 1026.3 1026.3 0.8
20/07:00am 6.5 2.4 6.4 99 0.0 WNW 17 22 9 12 1026.0 1026.0 0.8
20/06:30am 6.4 2.7 6.3 99 0.0 WNW 15 19 8 10 1025.8 1025.8 0.8
20/06:00am 6.2 2.1 6.1 99 0.0 NW 17 22 9 12 1025.5 1025.5 0.8
20/05:30am 6.4 1.8 6.3 99 0.0 WNW 20 26 11 14 1025.6 1025.6 0.8
20/05:10am 6.5 2.8 6.4 99 0.0 WNW 15 20 8 11 1025.7 1025.7 0.6
20/05:00am 6.4 4.2 6.3 99 0.0 W 7 11 4 6 1025.8 1025.8 0.6
20/04:53am 6.4 3.8 6.3 99 0.0 WSW 9 13 5 7 1025.9 1025.9 0.6
20/04:30am 6.1 3.9 6.0 99 0.0 SSW 7 9 4 5 1025.9 1025.9 0.4
20/04:00am 6.1 3.9 6.0 99 0.0 NNW 7 9 4 5 1025.8 1025.8 0.4
20/03:30am 6.6 3.7 6.5 99 0.0 NW 11 15 6 8 1025.7 1025.7 0.4
20/03:00am 6.5 3.6 6.4 99 0.0 NW 11 15 6 8 1025.9 1025.9 0.4
20/02:30am 6.6 3.7 6.5 99 0.0 WNW 11 13 6 7 1026.0 1026.0 0.4
20/02:00am 6.6 3.3 6.5 99 0.0 WNW 13 15 7 8 1026.0 1026.0 0.4
20/01:30am 6.8 3.9 6.7 99 0.0 WNW 11 11 6 6 1026.1 1026.1 0.4
20/01:00am 7.0 4.6 6.9 99 0.0 NW 9 11 5 6 1026.2 1026.2 0.4
20/12:30am 7.4 5.1 7.3 99 0.0 WNW 9 11 5 6 1026.5 1026.5 0.4
20/12:00am 7.5 6.1 7.4 99 0.0 NNW 4 7 2 4 1026.5 1026.5 0.4
 
Date/Time
EST
Temp
°C
App
Temp
°C
Dew
Point
°C
Rel
Hum
%
Delta-T
°C
Wind Press
QNH
hPa
Press
MSL
hPa
Rain since
9am
mm
Dir  Spd
km/h
Gust
km/h
Spd
kts
Gust
kts
19/11:30pm 7.5 5.8 7.4 99 0.0 SSE 6 9 3 5 1026.6 1026.6 0.2
19/11:00pm 7.3 4.9 7.2 99 0.0 W 9 11 5 6 1026.5 1026.5 0.2
19/10:30pm 7.6 4.9 7.5 99 0.0 WNW 11 13 6 7 1026.4 1026.4 0.2
19/10:00pm 7.7 3.9 7.6 99 0.0 WNW 17 19 9 10 1026.5 1026.5 0.2
19/09:30pm 7.6 4.6 7.5 99 0.0 WNW 13 17 7 9 1026.5 1026.5 0.2
19/09:00pm 7.9 5.3 7.6 98 0.1 WNW 11 13 6 7 1026.7 1026.7 0.2
19/08:30pm 8.3 6.1 8.0 98 0.1 NW 9 13 5 7 1026.5 1026.5 0.2
19/08:00pm 8.2 6.6 8.1 99 0.0 NW 6 9 3 5 1026.6 1026.6 0.2
19/07:30pm 8.6 7.0 8.2 97 0.2 W 6 7 3 4 1026.7 1026.7 0.2
19/07:00pm 8.6 6.8 7.8 95 0.4 WNW 7 9 4 5 1026.5 1026.5 0.2
19/06:30pm 8.9 6.7 8.0 94 0.4 WNW 9 11 5 6 1026.4 1026.4 0.0
19/06:00pm 8.7 8.1 7.3 91 0.7 CALM 0 0 0 0 1026.2 1026.2 0.0
19/05:30pm 8.5 7.7 6.6 88 0.9 CALM 0 0 0 0 1026.1 1026.1 0.0
19/05:00pm 9.6 8.9 7.0 84 1.2 CALM 0 0 0 0 1026.0 1026.0 0.0
19/04:30pm 10.0 9.0 7.3 83 1.3 SW 2 9 1 5 1026.2 1026.2 0.0
19/04:00pm 9.9 7.5 7.0 82 1.4 W 9 11 5 6 1026.2 1026.2 0.0
19/03:30pm 10.2 7.8 7.1 81 1.5 W 9 13 5 7 1026.1 1026.1 0.0
19/03:00pm 10.1 7.0 7.2 82 1.4 WNW 13 17 7 9 1025.8 1025.8 0.0
19/02:30pm 10.0 6.6 7.6 85 1.1 WNW 15 19 8 10 1025.7 1025.7 0.0
19/02:00pm 9.6 7.3 7.4 86 1.0 SSW 9 13 5 7 1025.9 1025.9 0.0
19/01:30pm 10.7 6.3 6.6 76 1.9 WSW 19 24 10 13 1026.1 1026.1 0.0
19/01:00pm 11.3 6.9 6.6 73 2.2 W 19 26 10 14 1026.2 1026.2 0.0
19/12:30pm 10.7 5.7 6.6 76 1.9 W 22 30 12 16 1026.4 1026.4 0.0
19/12:00pm 10.3 5.3 6.3 76 1.8 W 22 28 12 15 1026.5 1026.5 0.0
19/11:30am 9.7 5.1 6.4 80 1.5 WNW 20 26 11 14 1026.8 1026.8 0.0
19/11:00am 9.1 5.0 6.4 83 1.2 W 17 24 9 13 1026.9 1026.9 0.0
19/10:30am 9.0 4.6 6.6 85 1.1 W 19 24 10 13 1026.8 1026.8 0.0
19/10:00am 7.9 3.7 5.7 86 1.0 W 17 26 9 14 1026.7 1026.7 0.0
19/09:30am 7.2 3.0 5.8 91 0.6 WNW 17 20 9 11 1026.4 1026.4 0.0
19/09:00am 6.3 1.6 5.3 93 0.4 W 19 28 10 15 1026.3 1026.3 3.2
19/08:30am 5.8 2.6 4.9 94 0.4 W 11 17 6 9 1025.9 1025.9 3.2
19/08:00am 5.7 1.4 5.1 96 0.3 WNW 17 22 9 12 1025.4 1025.4 3.2
19/07:30am 5.0 0.6 4.6 97 0.2 WNW 17 19 9 10 1025.3 1025.3 3.2
19/07:00am 5.0 0.2 4.4 96 0.3 WNW 19 24 10 13 1025.0 1025.0 3.2
19/06:30am 5.2 0.8 4.8 97 0.2 WNW 17 20 9 11 1024.6 1024.6 3.2
19/06:00am 4.8 1.0 4.1 95 0.3 WSW 13 17 7 9 1024.4 1024.4 3.2
19/05:30am 5.1 0.3 4.4 95 0.3 WNW 19 22 10 12 1023.8 1023.8 3.2
19/05:00am 4.9 0.0 4.3 96 0.3 WNW 19 22 10 12 1023.5 1023.5 3.2
19/04:30am 4.9 0.4 4.2 95 0.3 WNW 17 20 9 11 1023.5 1023.5 3.2
19/04:00am 5.0 0.5 4.1 94 0.4 WNW 17 20 9 11 1023.5 1023.5 3.2
19/03:30am 5.5 0.1 4.6 94 0.4 WNW 22 28 12 15 1023.5 1023.5 3.2
19/03:00am 5.4 0.4 4.8 96 0.3 WNW 20 24 11 13 1023.4 1023.4 3.2
19/02:30am 5.5 0.6 5.1 97 0.2 WNW 20 24 11 13 1023.4 1023.4 3.2
19/02:00am 5.4 0.6 4.8 96 0.3 WNW 19 24 10 13 1023.3 1023.3 3.2
19/01:30am 5.7 0.4 5.0 95 0.3 WNW 22 26 12 14 1023.4 1023.4 3.2
19/01:00am 5.7 0.7 4.8 94 0.4 WNW 20 24 11 13 1023.4 1023.4 3.2
19/12:30am 5.9 1.0 4.9 93 0.4 WNW 20 28 11 15 1023.3 1023.3 3.2
19/12:00am 5.9 1.1 4.9 93 0.4 WNW 19 24 10 13 1023.2 1023.2 3.2
 
Date/Time
EST
Temp
°C
App
Temp
°C
Dew
Point
°C
Rel
Hum
%
Delta-T
°C
Wind Press
QNH
hPa
Press
MSL
hPa
Rain since
9am
mm
Dir  Spd
km/h
Gust
km/h
Spd
kts
Gust
kts
18/11:30pm 6.2 1.3 5.0 92 0.5 W 20 26 11 14 1023.3 1023.3 3.2
18/11:00pm 6.3 1.0 5.1 92 0.5 WNW 22 26 12 14 1023.2 1023.2 3.2
18/10:30pm 6.3 0.6 5.1 92 0.5 WNW 24 28 13 15 1023.0 1023.0 3.2
18/10:00pm 6.4 1.1 5.0 91 0.6 WNW 22 26 12 14 1022.8 1022.8 3.2
18/09:30pm 6.3 0.6 4.8 90 0.7 WNW 24 30 13 16 1022.7 1022.7 3.2
18/09:00pm 6.5 1.2 5.0 90 0.7 WNW 22 28 12 15 1022.4 1022.4 3.2
18/08:30pm 6.8 1.9 5.0 88 0.8 WNW 20 28 11 15 1022.2 1022.2 3.0
18/08:00pm 6.9 2.1 5.4 90 0.7 WNW 20 24 11 13 1021.8 1021.8 3.0
18/07:30pm 6.8 2.2 5.4 91 0.6 WNW 19 20 10 11 1021.6 1021.6 3.0
18/07:00pm 7.4 2.9 6.2 92 0.5 WNW 19 22 10 12 1021.4 1021.4 3.0
18/06:30pm 7.8 3.5 6.9 94 0.4 WNW 19 20 10 11 1021.0 1021.0 3.0
18/06:00pm 8.0 4.0 6.8 92 0.6 WNW 17 20 9 11 1020.6 1020.6 3.0
18/05:30pm 8.6 5.5 7.1 90 0.7 NW 13 15 7 8 1020.2 1020.2 3.0
18/05:00pm 9.2 5.3 7.3 88 0.9 WNW 17 20 9 11 1020.0 1020.0 3.0
18/04:30pm 10.0 5.7 7.9 87 1.0 WNW 20 26 11 14 1019.7 1019.7 3.0
18/04:00pm 10.4 5.9 8.5 88 0.9 WNW 22 28 12 15 1019.4 1019.4 3.0
18/03:30pm 9.9 7.2 9.1 95 0.4 WNW 13 19 7 10 1019.1 1019.1 3.0
18/03:00pm 9.4 6.2 8.6 95 0.4 WNW 15 17 8 9 1018.9 1018.9 3.0
18/02:30pm 8.9 4.2 7.8 93 0.5 WSW 22 30 12 16 1018.8 1018.8 3.0
18/02:04pm 8.6 2.8 7.8 95 0.4 W 28 48 15 26 1018.7 1018.7 2.4
18/02:00pm 8.7 2.9 7.9 95 0.4 WSW 28 37 15 20 1018.6 1018.6 2.2
18/01:30pm 8.9 1.9 8.3 96 0.3 WNW 35 44 19 24 1018.3 1018.3 1.2
18/01:27pm 8.9 1.5 8.3 96 0.3 WNW 37 46 20 25 1018.2 1018.2 1.2
18/01:13pm 8.9 1.3 7.5 91 0.7 WNW 37 46 20 25 1017.9 1017.9 0.8
18/01:00pm 10.2 4.4 8.0 86 1.1 WNW 28 44 15 24 1017.7 1017.7 0.4
18/12:46pm 11.4 4.9 6.5 72 2.3 W 30 48 16 26 1017.5 1017.5 0.0
18/12:30pm 12.3 5.8 8.2 76 2.0 W 32 43 17 23 1017.4 1017.4 0.0
18/12:00pm 12.6 6.4 9.2 80 1.7 WNW 32 41 17 22 1017.3 1017.3 0.0
18/11:30am 11.9 5.3 8.6 80 1.6 WNW 33 44 18 24 1017.1 1017.1 0.0
18/11:00am 11.3 6.4 8.5 83 1.4 WNW 24 33 13 18 1017.5 1017.5 0.0
18/10:30am 11.1 6.9 8.3 83 1.4 NW 20 32 11 17 1017.5 1017.5 0.0
18/10:00am 10.8 6.9 8.6 86 1.1 NW 19 24 10 13 1017.3 1017.3 0.0
18/09:30am 10.3 6.8 8.6 89 0.8 NNW 17 24 9 13 1016.8 1016.8 0.0
18/09:00am 10.0 6.0 8.1 88 0.9 NNW 19 24 10 13 1016.4 1016.4 0.6
18/08:30am 11.0 5.9 7.7 80 1.6 NW 24 32 13 17 1016.4 1016.4 -
18/08:00am 9.8 7.2 7.9 88 0.9 NNW 11 13 6 7 1016.2 1016.2 -
18/07:30am 9.8 6.4 7.7 87 1.0 N 15 19 8 10 1015.8 1015.8 -
18/07:00am 9.7 5.9 7.6 87 1.0 N 17 22 9 12 1015.5 1015.5 -
18/06:30am 9.6 5.2 7.5 87 1.0 N 20 24 11 13 1015.3 1015.3 -
18/06:00am 9.9 4.8 7.5 85 1.1 N 24 32 13 17 1015.0 1015.0 -
18/05:30am 10.0 5.8 7.4 84 1.2 N 19 26 10 14 1015.2 1015.2 -
18/05:00am 10.4 6.0 7.5 82 1.4 N 20 26 11 14 1015.3 1015.3 -
18/04:30am 11.1 6.7 7.6 79 1.7 N 20 28 11 15 1015.5 1015.5 -
18/04:00am 11.6 6.6 7.9 78 1.8 N 24 32 13 17 1015.8 1015.8 -
18/03:30am 11.9 5.7 8.0 77 1.9 N 30 39 16 21 1016.0 1016.0 -
18/03:00am 11.5 5.4 8.4 81 1.5 N 30 41 16 22 1016.2 1016.2 0.0
18/02:30am 11.6 6.7 8.3 80 1.6 NNE 24 30 13 16 1016.6 1016.6 -
18/02:00am 11.1 7.0 8.5 84 1.3 N 20 24 11 13 1017.1 1017.1 -
18/01:30am 10.9 7.3 8.3 84 1.3 NNE 17 24 9 13 1017.0 1017.0 -
18/01:00am 10.5 7.3 8.4 87 1.0 N 15 19 8 10 1017.3 1017.3 -
18/12:30am 9.8 7.0 8.4 91 0.7 NNE 13 19 7 10 1017.3 1017.3 -
18/12:00am 9.4 7.1 7.3 87 1.0 NNE 9 13 5 7 1017.7 1017.7 -
 
Date/Time
EST
Temp
°C
App
Temp
°C
Dew
Point
°C
Rel
Hum
%
Delta-T
°C
Wind Press
QNH
hPa
Press
MSL
hPa
Rain since
9am
mm
Dir  Spd
km/h
Gust
km/h
Spd
kts
Gust
kts
17/11:30pm 10.5 6.3 7.4 81 1.5 NNE 19 24 10 13 1017.9 1017.9 -
17/11:00pm 10.5 6.3 8.1 85 1.2 NNE 20 24 11 13 1018.2 1018.2 -
17/10:30pm 10.2 6.1 8.0 86 1.1 NNE 19 24 10 13 1018.4 1018.4 -
17/10:00pm 9.7 5.6 7.8 88 0.9 NNE 19 24 10 13 1018.6 1018.6 -

Other formats

Comma delimited format used in spreadsheet applications
http://www.bom.gov.au/fwo/IDV60801/IDV60801.94854.axf

JavaScript Object Notation format (JSON) in row-major order
http://www.bom.gov.au/fwo/IDV60801/IDV60801.94854.json

Data quality

Most of these data are generated automatically and are frequently updated. Quality checks on data are not normally performed. It is possible for incorrect values to appear. Refer to information at About Latest Weather Observations and please check the disclaimer before using these data.